Time;durP1;ratioP1;P1;durP2;ratioP2;P2;SDS_P1;SDS_P2;PMS_P1;PMS_P2;Temp;Humidity;BMP_temperature;BMP_pressure;BME280_temperature;BME280_humidity;BME280_pressure;Samples;Min_cycle;Max_cycle;Signal;HPM_P1;HPM_P2
2023/07/21 00:01:08;;;;;;;5.68;5.18;;;;;;;15.04;100.00;101248.09;5089726;28;19916;-36
2023/07/21 00:03:34;;;;;;;5.05;4.65;;;;;;;15.06;100.00;101243.22;5089886;28;20111;-36
2023/07/21 00:06:01;;;;;;;5.20;4.80;;;;;;;15.00;100.00;101246.94;5090239;28;20412;-36
2023/07/21 00:08:26;;;;;;;6.10;5.60;;;;;;;14.92;100.00;101250.91;5090364;28;20028;-36
2023/07/21 00:10:51;;;;;;;;;;;;;;;15.14;100.00;101250.97;5080408;28;20112;-36
2023/07/21 00:13:17;;;;;;;5.20;4.80;;;;;;;14.98;100.00;101243.63;5076315;28;19908;-36
2023/07/21 00:15:44;;;;;;;5.18;4.68;;;;;;;14.89;100.00;101244.09;5076598;28;20255;-36
2023/07/21 00:18:10;;;;;;;5.43;4.93;;;;;;;14.67;100.00;101229.56;5076116;28;20027;-36
2023/07/21 00:20:35;;;;;;;;;;;;;;;15.03;100.00;101252.72;5076555;28;20028;-36
2023/07/21 00:23:00;;;;;;;6.27;4.90;;;;;;;14.84;100.00;101252.19;5076219;28;19904;-36
2023/07/21 00:25:26;;;;;;;5.40;4.90;;;;;;;14.93;100.00;101247.09;5076367;28;20306;-36
2023/07/21 00:27:52;;;;;;;;;;;;;;;15.05;100.00;101242.41;5076785;28;20056;-36
2023/07/21 00:30:18;;;;;;;5.45;4.80;;;;;;;14.85;100.00;101237.50;5075970;28;19912;-36
2023/07/21 00:32:43;;;;;;;5.30;4.80;;;;;;;14.75;100.00;101242.78;5075928;28;20032;-36
2023/07/21 00:35:09;;;;;;;;;;;;;;;14.96;100.00;101238.44;5076851;28;20020;-36
2023/07/21 00:37:36;;;;;;;5.07;4.57;;;;;;;14.74;100.00;101238.41;5076110;28;19939;-36
2023/07/21 00:40:09;;;;;;;4.80;4.43;;;;;;;14.67;100.00;101240.47;5075694;28;20070;-36
2023/07/21 00:42:35;;;;;;;5.47;4.68;;;;;;;14.84;100.00;101246.72;5076245;28;20107;-36
2023/07/21 00:45:00;;;;;;;;;;;;;;;14.98;100.00;101239.00;5076383;28;20516;-36
2023/07/21 00:47:27;;;;;;;5.27;4.77;;;;;;;14.85;100.00;101239.38;5075434;28;19966;-37
2023/07/21 00:49:53;;;;;;;4.90;4.43;;;;;;;14.78;100.00;101242.25;5075278;28;20278;-37
2023/07/21 00:52:18;;;;;;;;;;;;;;;14.96;100.00;101243.06;5076566;28;20078;-36
2023/07/21 00:54:44;;;;;;;4.32;3.70;;;;;;;14.79;100.00;101227.59;5075269;28;19999;-36
2023/07/21 00:57:10;;;;;;;4.40;4.00;;;;;;;14.85;100.00;101226.59;5075232;28;20453;-36
2023/07/21 00:59:36;;;;;;;;;;;;;;;14.97;100.00;101229.19;5075363;28;20040;-36
2023/07/21 01:02:02;;;;;;;4.03;3.60;;;;;;;14.85;100.00;101225.78;5075675;28;20420;-36
2023/07/21 01:04:30;;;;;;;4.28;3.90;;;;;;;14.72;100.00;101220.66;5075056;28;20091;-36
2023/07/21 01:06:55;;;;;;;5.18;4.18;;;;;;;14.61;100.00;101217.78;5075784;28;20103;-36
2023/07/21 01:09:22;;;;;;;;;;;;;;;14.79;100.00;101216.72;5075401;28;20466;-37
2023/07/21 01:11:47;;;;;;;4.47;4.10;;;;;;;14.60;100.00;101218.06;5075764;28;20295;-36
2023/07/21 01:14:13;;;;;;;;;;;;;;;14.77;100.00;101213.41;5075843;28;20021;-36
2023/07/21 01:16:43;;;;;;;5.32;3.92;;;;;;;14.50;100.00;101205.09;5075651;28;19909;-37
2023/07/21 01:19:15;;;;;;;4.90;4.38;;;;;;;14.52;100.00;101213.00;5074895;28;20420;-36
2023/07/21 01:21:50;;;;;;;4.30;3.90;;;;;;;14.48;100.00;101204.50;5074023;28;20024;-37
2023/07/21 01:24:28;;;;;;;4.63;4.22;;;;;;;14.51;100.00;101201.31;5075731;28;20411;-37
2023/07/21 01:26:55;;;;;;;5.13;4.65;;;;;;;14.43;100.00;101209.84;5075407;28;20028;-37
2023/07/21 01:29:23;;;;;;;6.72;3.90;;;;;;;14.43;100.00;101197.06;5074857;28;20049;-36
2023/07/21 01:31:50;;;;;;;4.55;4.15;;;;;;;14.44;100.00;101200.59;5075302;28;20028;-36
2023/07/21 01:34:17;;;;;;;3.63;3.33;;;;;;;14.48;100.00;101193.63;5074985;28;20124;-36
2023/07/21 01:36:43;;;;;;;3.40;3.03;;;;;;;14.48;100.00;101198.25;5074353;28;20104;-37
2023/07/21 01:39:08;;;;;;;;;;;;;;;14.60;100.00;101199.81;5075515;28;20024;-37
2023/07/21 01:41:35;;;;;;;4.40;4.00;;;;;;;14.32;100.00;101186.28;5074851;28;19998;-37
2023/07/21 01:44:01;;;;;;;4.95;4.45;;;;;;;14.28;100.00;101190.56;5074480;28;20028;-37
2023/07/21 01:46:26;;;;;;;;;;;;;;;14.49;100.00;101200.72;5075710;28;20332;-37
2023/07/21 01:48:52;;;;;;;4.45;4.05;;;;;;;14.31;100.00;101188.19;5075229;28;19909;-36
2023/07/21 01:51:19;;;;;;;;;;;;;;;14.48;100.00;101195.53;5075298;28;20427;-36
2023/07/21 01:53:49;;;;;;;3.88;3.50;;;;;;;14.23;100.00;101176.88;5074000;28;19908;-37
2023/07/21 01:56:38;;;;;;;6.03;4.45;;;;;;;14.28;100.00;101176.97;5074643;28;20032;-37
2023/07/21 01:59:07;;;;;;;5.00;4.38;;;;;;;14.19;100.00;101181.97;5074275;28;20372;-36
2023/07/21 02:01:34;;;;;;;6.43;4.80;;;;;;;14.12;100.00;101184.06;5074243;28;20024;-37
2023/07/21 02:04:00;;;;;;;4.13;3.72;;;;;;;14.12;100.00;101179.44;5074048;28;20039;-37
2023/07/21 02:06:26;;;;;;;;;;;;;;;14.32;100.00;101180.84;5075141;28;20448;-36
2023/07/21 02:08:51;;;;;;;4.32;3.67;;;;;;;14.30;100.00;101166.63;5074525;28;19908;-36
2023/07/21 02:11:16;;;;;;;;;;;;;;;14.43;100.00;101166.31;5074808;28;20435;-37
2023/07/21 02:13:42;;;;;;;4.68;4.20;;;;;;;14.16;100.00;101167.00;5073745;28;20415;-37
2023/07/21 02:16:07;;;;;;;;;;;;;;;14.37;100.00;101175.47;5074719;28;20112;-36
2023/07/21 02:18:33;;;;;;;3.88;3.50;;;;;;;14.14;100.00;101176.44;5073880;28;19912;-36
2023/07/21 02:21:02;;;;;;;4.20;3.80;;;;;;;14.04;100.00;101176.28;5074472;28;20017;-36
2023/07/21 02:23:28;;;;;;;4.55;4.10;;;;;;;13.97;100.00;101176.44;5073777;28;20020;-37
2023/07/21 02:25:53;;;;;;;;;;;;;;;14.15;100.00;101178.94;5075113;28;20040;-36
2023/07/21 02:28:19;;;;;;;3.90;3.60;;;;;;;13.96;100.00;101169.38;5073784;28;19904;-36
2023/07/21 02:30:44;;;;;;;;;;;;;;;14.11;100.00;101177.78;5074274;28;20080;-36
2023/07/21 02:33:10;;;;;;;4.57;3.85;;;;;;;13.89;100.00;101168.69;5073681;28;19904;-36
2023/07/21 02:35:35;;;;;;;4.38;3.95;;;;;;;13.84;100.00;101168.59;5073977;28;20028;-36
2023/07/21 02:38:03;;;;;;;5.72;3.97;;;;;;;13.91;100.00;101158.41;5074432;28;20454;-36
2023/07/21 02:40:30;;;;;;;3.70;3.40;;;;;;;13.88;100.00;101156.16;5073659;28;20021;-36
2023/07/21 02:42:56;;;;;;;4.97;3.97;;;;;;;13.82;100.00;101165.31;5073272;28;20016;-36
2023/07/21 02:45:22;;;;;;;;;;;;;;;13.97;100.00;101162.84;5074078;28;20081;-36
2023/07/21 02:47:47;;;;;;;4.43;4.03;;;;;;;13.84;100.00;101157.72;5074046;28;20332;-36
2023/07/21 02:50:14;;;;;;;;;;;;;;;13.96;100.00;101163.09;5074264;28;20067;-36
2023/07/21 02:52:40;;;;;;;4.50;3.70;;;;;;;13.87;100.00;101159.97;5072532;28;19911;-36
2023/07/21 02:55:07;;;;;;;4.43;4.03;;;;;;;13.68;100.00;101145.75;5073376;28;20341;-36
2023/07/21 02:57:34;;;;;;;4.32;4.00;;;;;;;13.70;100.00;101164.53;5073797;28;20035;-36
2023/07/21 02:59:59;;;;;;;6.45;4.25;;;;;;;13.68;100.00;101155.81;5073893;28;20051;-36
2023/07/21 03:02:25;;;;;;;;;;;;;;;13.87;100.00;101160.78;5073874;28;20356;-36
2023/07/21 03:04:50;;;;;;;3.90;3.50;;;;;;;13.83;100.00;101161.53;5073404;28;19915;-36
2023/07/21 03:07:16;;;;;;;;;;;;;;;13.87;100.00;101155.34;5073808;28;20399;-36
2023/07/21 03:09:41;;;;;;;4.03;3.72;;;;;;;13.69;100.00;101162.88;5073839;28;20298;-36
2023/07/21 03:12:07;;;;;;;;;;;;;;;13.84;100.00;101161.25;5073790;28;20028;-36
2023/07/21 03:14:32;;;;;;;5.03;3.70;;;;;;;13.63;100.00;101151.94;5073268;28;20304;-36
2023/07/21 03:16:58;;;;;;;;;;;;;;;13.84;100.00;101165.88;5074037;28;20104;-36
2023/07/21 03:19:23;;;;;;;4.10;3.70;;;;;;;13.65;100.00;101157.94;5073492;28;19912;-36
2023/07/21 03:21:49;;;;;;;;;;;;;;;13.74;100.00;101158.38;5073686;28;20414;-36
2023/07/21 03:24:15;;;;;;;3.92;3.53;;;;;;;13.53;100.00;101157.19;5073453;28;20294;-36
2023/07/21 03:26:40;;;;;;;;;;;;;;;13.69;100.00;101157.47;5073928;28;20026;-36
2023/07/21 03:29:06;;;;;;;3.30;3.00;;;;;;;13.62;100.00;101163.88;5073394;28;20263;-36
2023/07/21 03:31:32;;;;;;;4.40;4.00;;;;;;;13.41;100.00;101140.09;5072897;28;20059;-36
2023/07/21 03:33:58;;;;;;;4.20;3.83;;;;;;;13.38;100.00;101151.44;5073082;28;20108;-36
2023/07/21 03:36:23;;;;;;;;;;;;;;;13.61;100.00;101162.19;5074088;28;20459;-36
2023/07/21 03:38:49;;;;;;;5.40;3.58;;;;;;;13.29;100.00;101153.72;5072930;28;19944;-36
2023/07/21 03:41:14;;;;;;;4.03;3.65;;;;;;;13.29;100.00;101166.47;5072837;28;20024;-36
2023/07/21 03:43:40;;;;;;;4.25;3.58;;;;;;;13.32;100.00;101163.25;5072958;28;20048;-37
2023/07/21 03:46:06;;;;;;;;;;;;;;;13.44;100.00;101161.34;5076230;28;20091;-36
2023/07/21 03:48:32;;;;;;;5.03;3.60;;;;;;;13.39;100.00;101169.41;5076345;28;19904;-36
2023/07/21 03:51:04;;;;;;;4.15;3.75;;;;;;;13.21;100.00;101151.34;5076416;28;20028;-36
2023/07/21 03:53:31;;;;;;;4.63;3.60;;;;;;;13.36;100.00;101159.81;5077411;28;20020;-36
2023/07/21 03:55:57;;;;;;;3.85;3.45;;;;;;;13.30;100.00;101155.38;5077161;28;20020;-36
2023/07/21 03:58:22;;;;;;;;;;;;;;;13.46;100.00;101155.66;5076476;28;20053;-37
2023/07/21 04:00:48;;;;;;;4.78;3.70;;;;;;;13.26;100.00;101156.91;5077261;28;20295;-37
2023/07/21 04:03:15;;;;;;;4.50;4.10;;;;;;;13.17;100.00;101155.59;5076453;28;20020;-35
2023/07/21 04:05:40;;;;;;;4.32;3.83;;;;;;;13.11;100.00;101151.97;5076412;28;20031;-35
2023/07/21 04:08:06;;;;;;;;;;;;;;;13.30;100.00;101140.97;5077403;28;20028;-35
2023/07/21 04:10:32;;;;;;;4.30;3.90;;;;;;;13.14;100.00;101135.19;5076281;28;19923;-35
2023/07/21 04:12:58;;;;;;;4.50;4.10;;;;;;;13.17;100.00;101138.50;5076598;28;20020;-35
2023/07/21 04:15:25;;;;;;;;;;;;;;;13.31;100.00;101137.19;5076633;28;20031;-35
2023/07/21 04:17:53;;;;;;;4.75;4.07;;;;;;;13.11;100.00;101132.97;5076273;28;19908;-35
2023/07/21 04:20:19;;;;;;;4.43;3.70;;;;;;;13.07;100.00;101128.25;5076076;28;20024;-35
2023/07/21 04:22:44;;;;;;;;;;;;;;;13.23;100.00;101132.16;5076870;28;20051;-36
2023/07/21 04:25:11;;;;;;;5.10;3.83;;;;;;;13.06;100.00;101124.72;5076344;28;19911;-35
2023/07/21 04:27:36;;;;;;;3.83;3.53;;;;;;;13.11;100.00;101122.09;5076019;28;20052;-36
2023/07/21 04:30:02;;;;;;;;;;;;;;;13.31;100.00;101123.59;5076490;28;20106;-35
2023/07/21 04:32:27;;;;;;;3.88;3.55;;;;;;;13.27;100.00;101122.44;5075894;28;20333;-35
2023/07/21 04:34:53;;;;;;;4.82;4.13;;;;;;;13.25;100.00;101127.28;5075941;28;20041;-35
2023/07/21 04:37:18;;;;;;;4.30;3.90;;;;;;;13.30;100.00;101121.97;5076449;28;20017;-35
2023/07/21 04:39:43;;;;;;;;;;;;;;;13.43;100.00;101129.81;5075857;28;20073;-35
2023/07/21 04:42:09;;;;;;;4.73;3.70;;;;;;;13.43;100.00;101109.97;5075708;28;19908;-35
2023/07/21 04:44:34;;;;;;;4.97;4.57;;;;;;;13.40;100.00;101122.16;5076065;28;20274;-35
2023/07/21 04:47:00;;;;;;;5.30;4.78;;;;;;;13.40;100.00;101117.53;5075713;28;20754;-35
2023/07/21 04:49:25;;;;;;;;;;;;;;;13.59;100.00;101115.44;5075784;28;20035;-37
2023/07/21 04:51:51;;;;;;;4.90;4.50;;;;;;;13.43;100.00;101121.66;5075739;28;20371;-35
2023/07/21 04:54:16;;;;;;;4.75;4.35;;;;;;;13.55;100.00;101121.59;5075193;28;20063;-35
2023/07/21 04:56:43;;;;;;;3.95;3.65;;;;;;;13.69;100.00;101122.13;5075801;28;20123;-35
2023/07/21 04:59:09;;;;;;;4.75;4.35;;;;;;;13.74;100.00;101125.75;5075675;28;20123;-36
2023/07/21 05:01:35;;;;;;;;;;;;;;;13.91;100.00;101123.06;5075852;28;20104;-36
2023/07/21 05:04:00;;;;;;;5.30;4.80;;;;;;;13.87;100.00;101120.00;5075288;28;20322;-36
2023/07/21 05:06:26;;;;;;;5.28;4.78;;;;;;;13.89;100.00;101122.47;5075640;28;20104;-36
2023/07/21 05:08:51;;;;;;;;;;;;;;;14.14;100.00;101136.47;5075399;28;20035;-36
2023/07/21 05:11:16;;;;;;;4.90;4.50;;;;;;;14.14;100.00;101133.75;5075260;28;19908;-36
2023/07/21 05:13:44;;;;;;;5.95;4.72;;;;;;;14.16;100.00;101136.25;5075216;28;20324;-36
2023/07/21 05:16:10;;;;;;;5.72;5.22;;;;;;;14.20;100.00;101128.41;5075363;28;20052;-36
2023/07/21 05:18:36;;;;;;;;;;;;;;;14.38;100.00;101128.16;5076236;28;20453;-36
2023/07/21 05:21:01;;;;;;;7.13;5.85;;;;;;;14.21;100.00;101114.56;5074976;28;19908;-36
2023/07/21 05:23:27;;;;;;;;;;;;;;;14.41;100.00;101124.94;5075070;28;20055;-36
2023/07/21 05:26:00;;;;;;;7.83;5.77;;;;;;;14.33;100.00;101125.34;5074658;28;19962;-36
2023/07/21 05:28:27;;;;;;;6.50;5.90;;;;;;;14.24;100.00;101113.25;5074451;28;20350;-36
2023/07/21 05:30:52;;;;;;;6.05;5.45;;;;;;;14.56;100.00;101127.91;5074822;28;20033;-36
2023/07/21 05:33:17;;;;;;;;;;;;;;;14.78;100.00;101135.28;5075535;28;20033;-36
2023/07/21 05:35:43;;;;;;;6.83;5.50;;;;;;;14.89;100.00;101128.91;5074736;28;19917;-36
2023/07/21 05:38:09;;;;;;;6.32;5.72;;;;;;;14.87;100.00;101136.47;5074622;28;20282;-36
2023/07/21 05:40:34;;;;;;;5.25;4.75;;;;;;;14.88;100.00;101127.22;5074316;28;20376;-36
2023/07/21 05:43:01;;;;;;;;;;;;;;;15.05;100.00;101122.56;5074966;28;20085;-36
2023/07/21 05:45:26;;;;;;;5.70;5.20;;;;;;;15.04;100.00;101125.56;5074461;28;19908;-36
2023/07/21 05:47:52;;;;;;;;;;;;;;;15.19;100.00;101126.53;5075121;28;20033;-36
2023/07/21 05:50:17;;;;;;;5.87;5.20;;;;;;;15.23;100.00;101131.50;5074645;28;19911;-36
2023/07/21 05:52:42;;;;;;;6.43;5.80;;;;;;;15.28;100.00;101126.09;5074689;28;20259;-36
2023/07/21 05:55:08;;;;;;;;;;;;;;;15.48;100.00;101123.59;5075035;28;20103;-36
2023/07/21 05:57:34;;;;;;;6.53;5.93;;;;;;;15.36;100.00;101122.91;5074591;28;19999;-36
2023/07/21 05:59:59;;;;;;;;;;;;;;;15.58;100.00;101133.78;5075073;28;20040;-37
2023/07/21 06:02:24;;;;;;;6.27;5.77;;;;;;;15.47;100.00;101130.13;5075115;28;19912;-36
2023/07/21 06:04:51;;;;;;;6.40;5.80;;;;;;;15.52;100.00;101123.88;5074150;28;20263;-36
2023/07/21 06:07:16;;;;;;;6.53;5.97;;;;;;;15.57;100.00;101118.50;5074311;28;20020;-36
2023/07/21 06:09:42;;;;;;;;;;;;;;;15.81;100.00;101127.19;5074284;28;20111;-36
2023/07/21 06:12:08;;;;;;;5.93;5.43;;;;;;;15.83;100.00;101133.22;5074270;28;19908;-36
2023/07/21 06:14:34;;;;;;;6.50;5.05;;;;;;;15.82;100.00;101115.22;5074278;28;20308;-36
2023/07/21 06:16:59;;;;;;;;;;;;;;;16.08;100.00;101130.72;5074400;28;20028;-36
2023/07/21 06:19:25;;;;;;;6.07;5.57;;;;;;;15.96;100.00;101119.19;5072626;28;19909;-36
2023/07/21 06:21:51;;;;;;;;;;;;;;;16.11;100.00;101124.75;5074847;28;20458;-36
2023/07/21 06:24:16;;;;;;;6.97;6.00;;;;;;;15.91;100.00;101119.13;5073805;28;20306;-36
2023/07/21 06:26:41;;;;;;;;;;;;;;;16.08;100.00;101125.25;5074035;28;20024;-36
2023/07/21 06:29:07;;;;;;;5.32;4.82;;;;;;;15.99;100.00;101121.38;5074065;28;19966;-36
2023/07/21 06:31:33;;;;;;;;;;;;;;;16.14;100.00;101129.66;5074781;28;20025;-36
2023/07/21 06:33:59;;;;;;;7.70;7.00;;;;;;;15.91;100.00;101121.84;5073709;28;19911;-36
2023/07/21 06:36:25;;;;;;;;;;;;;;;16.12;100.00;101126.38;5074724;28;20016;-36
2023/07/21 06:38:51;;;;;;;6.30;5.70;;;;;;;16.08;100.00;101121.72;5074360;28;19914;-36
2023/07/21 06:41:16;;;;;;;;;;;;;;;16.22;100.00;101126.47;5074670;28;20436;-36
2023/07/21 06:43:42;;;;;;;6.78;6.18;;;;;;;16.08;100.00;101124.44;5073586;28;19974;-36
2023/07/21 06:46:07;;;;;;;;;;;;;;;16.25;100.00;101121.56;5074079;28;20371;-36
2023/07/21 06:48:33;;;;;;;7.13;6.53;;;;;;;16.12;100.00;101123.66;5073558;28;19952;-35
2023/07/21 06:50:58;;;;;;;;;;;;;;;16.29;100.00;101123.50;5074643;28;20016;-36
2023/07/21 06:53:23;;;;;;;6.50;5.90;;;;;;;16.20;100.00;101112.28;5073505;28;19904;-37
2023/07/21 06:55:49;;;;;;;;;;;;;;;16.40;100.00;101121.69;5074282;28;20738;-36
2023/07/21 06:58:14;;;;;;;6.95;6.35;;;;;;;16.43;100.00;101126.59;5073256;28;19911;-36
2023/07/21 07:00:39;;;;;;;;;;;;;;;16.60;100.00;101119.06;5073984;28;20031;-36
2023/07/21 07:03:05;;;;;;;6.70;6.20;;;;;;;16.52;100.00;101113.28;5073502;28;19916;-36
2023/07/21 07:05:30;;;;;;;;;;;;;;;16.70;100.00;101116.41;5074143;28;20265;-36
2023/07/21 07:07:56;;;;;;;7.25;6.63;;;;;;;16.65;100.00;101121.00;5073394;28;20370;-36
2023/07/21 07:10:21;;;;;;;;;;;;;;;16.83;100.00;101127.94;5073512;28;20020;-36
2023/07/21 07:12:47;;;;;;;9.00;7.15;;;;;;;16.68;100.00;101113.09;5073558;28;19908;-36
2023/07/21 07:15:12;;;;;;;;;;;;;;;16.92;100.00;101115.44;5074051;28;20021;-36
2023/07/21 07:17:37;;;;;;;7.53;6.30;;;;;;;16.85;100.00;101117.59;5073599;28;19909;-36
2023/07/21 07:20:04;;;;;;;;;;;;;;;17.02;100.00;101118.19;5074230;28;20734;-36
2023/07/21 07:22:29;;;;;;;7.30;6.57;;;;;;;16.97;100.00;101112.72;5077299;28;19947;-36
2023/07/21 07:24:55;;;;;;;;;;;;;;;17.13;100.00;101105.38;5078551;28;20135;-36
2023/07/21 07:27:20;;;;;;;6.93;6.25;;;;;;;17.01;100.00;101102.09;5078090;28;19915;-36
2023/07/21 07:29:46;;;;;;;;;;;;;;;17.19;100.00;101099.69;5077591;28;20029;-36
2023/07/21 07:32:13;;;;;;;11.75;7.05;;;;;;;17.04;100.00;101093.38;5077153;28;19915;-36
2023/07/21 07:34:38;;;;;;;7.35;6.65;;;;;;;17.23;100.00;101102.72;5077416;28;20031;-36
2023/07/21 07:37:03;;;;;;;7.45;6.68;;;;;;;17.32;100.00;101108.44;5077425;28;20104;-36
2023/07/21 07:39:30;;;;;;;;;;;;;;;17.59;100.00;101114.53;5077388;28;20020;-36
2023/07/21 07:41:55;;;;;;;7.30;6.53;;;;;;;17.54;100.00;101111.78;5076717;28;19914;-36
2023/07/21 07:44:20;;;;;;;7.10;6.25;;;;;;;17.61;100.00;101109.59;5077687;28;20021;-36
2023/07/21 07:46:46;;;;;;;;;;;;;;;17.79;100.00;101118.41;5077068;28;20036;-36
2023/07/21 07:49:11;;;;;;;6.50;5.90;;;;;;;17.61;100.00;101095.94;5077010;28;19908;-35
2023/07/21 07:51:38;;;;;;;;;;;;;;;17.87;100.00;101117.88;5077545;28;20116;-36
2023/07/21 07:54:05;;;;;;;6.43;5.80;;;;;;;17.87;100.00;101115.16;5076676;28;19966;-36
2023/07/21 07:56:30;;;;;;;7.05;6.45;;;;;;;17.92;100.00;101110.50;5077224;28;20031;-36
2023/07/21 07:58:57;;;;;;;7.10;6.50;;;;;;;17.97;100.00;101113.22;5076521;28;20059;-36
2023/07/21 08:01:22;;;;;;;7.45;6.75;;;;;;;18.10;100.00;101117.31;5076894;28;20342;-36
2023/07/21 08:03:48;;;;;;;7.68;6.88;;;;;;;18.14;100.00;101117.59;5076397;28;20040;-36
2023/07/21 08:06:13;;;;;;;7.18;6.55;;;;;;;18.12;100.00;101109.66;5076576;28;20029;-36
2023/07/21 08:08:38;;;;;;;;;;;;;;;18.38;100.00;101117.84;5075377;28;20107;-36
2023/07/21 08:11:05;;;;;;;6.28;5.68;;;;;;;18.15;100.00;101117.31;5076086;28;20417;-36
2023/07/21 08:13:31;;;;;;;6.57;5.60;;;;;;;18.15;100.00;101120.03;5076643;28;20086;-36
2023/07/21 08:15:56;;;;;;;;;;;;;;;18.27;100.00;101117.84;5077333;28;20024;-36
2023/07/21 08:18:21;;;;;;;6.53;5.90;;;;;;;18.04;100.00;101104.75;5076230;28;19947;-36
2023/07/21 08:20:50;;;;;;;;;;;;;;;18.25;100.00;101117.31;5076504;28;20283;-36
2023/07/21 08:23:16;;;;;;;5.75;5.20;;;;;;;18.13;100.00;101118.69;5075874;28;20316;-36
2023/07/21 08:25:41;;;;;;;6.78;6.10;;;;;;;18.21;100.00;101110.75;5076820;28;20059;-36
2023/07/21 08:28:07;;;;;;;;;;;;;;;18.43;100.00;101115.09;5077179;28;20046;-36
2023/07/21 08:30:33;;;;;;;6.68;6.07;;;;;;;18.41;100.00;101117.31;5075846;28;20000;-37
2023/07/21 08:32:59;;;;;;;6.45;5.85;;;;;;;18.34;100.00;101105.78;5075595;28;20524;-37
2023/07/21 08:35:25;;;;;;;6.60;6.05;;;;;;;18.44;100.00;101117.53;5075971;28;20025;-37
2023/07/21 08:37:51;;;;;;;5.88;5.38;;;;;;;18.39;100.00;101108.53;5076214;28;20403;-37
2023/07/21 08:40:16;;;;;;;6.35;5.85;;;;;;;18.46;100.00;101118.09;5075406;28;20025;-37
2023/07/21 08:42:42;;;;;;;8.02;5.47;;;;;;;18.43;100.00;101128.78;5075880;28;20021;-37
2023/07/21 08:45:08;;;;;;;;;;;;;;;18.63;100.00;101126.00;5076520;28;20020;-36
2023/07/21 08:47:34;;;;;;;5.70;4.20;;;;;;;18.57;96.08;101121.63;5076027;28;20306;-37
2023/07/21 08:50:01;;;;;;;5.05;4.55;;;;;;;18.58;96.77;101122.47;5075751;28;20036;-37
2023/07/21 08:52:26;;;;;;;4.75;4.35;;;;;;;18.64;95.59;101118.59;5075673;28;20491;-37
2023/07/21 08:54:53;;;;;;;;;;;;;;;18.80;99.25;101127.66;5076025;28;20017;-37
2023/07/21 08:57:19;;;;;;;5.10;4.60;;;;;;;18.60;94.86;101128.50;5076126;28;20427;-37
2023/07/21 08:59:44;;;;;;;;;;;;;;;18.72;98.33;101123.53;5075947;28;20147;-37
2023/07/21 09:02:09;;;;;;;5.00;4.50;;;;;;;18.59;94.66;101122.16;5075197;28;19965;-37
2023/07/21 09:04:35;;;;;;;;;;;;;;;18.76;97.64;101124.63;5075807;28;20031;-37
2023/07/21 09:07:03;;;;;;;5.15;4.75;;;;;;;18.65;93.32;101123.81;5075673;28;19916;-37
2023/07/21 09:09:30;;;;;;;5.60;5.07;;;;;;;18.79;94.69;101118.59;5075029;28;20059;-37
2023/07/21 09:12:04;;;;;;;4.93;4.32;;;;;;;18.93;93.67;101114.13;5075266;28;20108;-37
2023/07/21 09:14:41;;;;;;;4.55;4.10;;;;;;;19.08;91.10;101118.75;5075169;28;20130;-37
2023/07/21 09:17:08;;;;;;;4.72;4.32;;;;;;;19.34;91.79;101113.97;5074926;28;20016;-37
2023/07/21 09:19:38;;;;;;;5.10;4.57;;;;;;;19.46;87.36;101117.16;5074969;28;20028;-37
2023/07/21 09:22:03;;;;;;;5.13;4.07;;;;;;;19.67;90.02;101111.59;5075418;28;20035;-37
2023/07/21 09:24:29;;;;;;;;;;;;;;;19.92;92.31;101103.16;5075115;28;20028;-37
2023/07/21 09:27:15;;;;;;;4.53;4.13;;;;;;;19.88;87.70;101084.81;5075213;28;20007;-37
2023/07/21 09:29:41;;;;;;;4.32;3.92;;;;;;;20.13;85.25;101102.97;5074919;28;20024;-37
2023/07/21 09:32:11;;;;;;;5.05;4.55;;;;;;;20.25;84.58;101106.16;5075727;28;20357;-37
2023/07/21 09:35:01;;;;;;;6.55;3.75;;;;;;;20.59;80.44;101086.88;5074794;28;20033;-37
2023/07/21 09:37:29;;;;;;;4.07;3.63;;;;;;;20.72;77.71;101088.91;5074809;28;20023;-37
2023/07/21 09:39:57;;;;;;;4.47;3.70;;;;;;;20.84;79.93;101094.00;5074285;28;20512;-37
2023/07/21 09:42:24;;;;;;;4.20;3.80;;;;;;;21.01;82.40;101086.09;5074744;28;20050;-37
2023/07/21 09:44:51;;;;;;;5.50;4.22;;;;;;;21.02;78.25;101097.91;5074634;28;20050;-37
2023/07/21 09:47:17;;;;;;;5.07;3.92;;;;;;;20.79;77.27;101091.34;5074906;28;20027;-37
2023/07/21 09:49:46;;;;;;;6.68;4.30;;;;;;;20.60;78.30;101091.28;5074478;28;20354;-37
2023/07/21 09:52:16;;;;;;;3.92;3.30;;;;;;;20.30;80.29;101076.72;5074735;28;20024;-37
2023/07/21 09:54:46;;;;;;;4.40;4.00;;;;;;;20.24;80.39;101082.53;5074321;28;20334;-38
2023/07/21 09:57:15;;;;;;;4.85;4.35;;;;;;;20.05;82.40;101079.72;5074146;28;20028;-37
2023/07/21 09:59:45;;;;;;;4.95;4.43;;;;;;;20.04;82.26;101086.31;5074137;28;20040;-37
2023/07/21 10:02:12;;;;;;;6.07;5.03;;;;;;;19.90;82.46;101083.41;5074279;28;20029;-37
2023/07/21 10:04:38;;;;;;;5.57;4.57;;;;;;;19.79;84.13;101082.69;5074489;28;20111;-37
2023/07/21 10:07:06;;;;;;;5.28;4.88;;;;;;;19.71;85.76;101086.03;5074544;28;20111;-37
2023/07/21 10:09:32;;;;;;;6.10;4.90;;;;;;;19.61;84.88;101088.03;5074448;28;20055;-37
2023/07/21 10:12:10;;;;;;;5.65;5.10;;;;;;;19.67;86.30;101090.47;5074184;28;20069;-37
2023/07/21 10:14:38;;;;;;;6.25;4.70;;;;;;;19.71;84.27;101085.22;5074606;28;20348;-37
2023/07/21 10:17:04;;;;;;;4.57;4.18;;;;;;;19.76;83.88;101083.28;5074019;28;20021;-37
2023/07/21 10:19:29;;;;;;;6.25;4.93;;;;;;;19.83;80.66;101085.69;5073923;28;20017;-37
2023/07/21 10:21:56;;;;;;;7.55;4.93;;;;;;;20.11;80.53;101088.75;5074806;28;20067;-37
2023/07/21 10:24:32;;;;;;;5.07;4.57;;;;;;;20.36;76.94;101085.72;5073925;28;20027;-37
2023/07/21 10:27:05;;;;;;;5.57;4.47;;;;;;;20.64;79.50;101078.56;5074213;28;20017;-37
2023/07/21 10:29:30;;;;;;;4.88;4.38;;;;;;;20.70;74.89;101058.19;5073551;28;20321;-37
2023/07/21 10:31:58;;;;;;;4.90;4.05;;;;;;;21.24;79.81;101067.91;5074642;28;20023;-37
2023/07/21 10:34:34;;;;;;;4.75;4.30;;;;;;;21.52;75.41;101079.91;5073833;28;20056;-37
2023/07/21 10:37:02;;;;;;;;;;;;;;;21.71;73.12;101065.28;5074206;28;20032;-37
2023/07/21 10:39:31;;;;;;;4.18;3.72;;;;;;;21.38;71.28;101061.69;5073680;28;20249;-37
2023/07/21 10:42:03;;;;;;;4.45;3.75;;;;;;;21.44;71.36;101066.00;5074531;28;20020;-37
2023/07/21 10:44:33;;;;;;;4.88;4.10;;;;;;;21.40;70.32;101056.69;5073926;28;20338;-37
2023/07/21 10:46:59;;;;;;;4.85;3.40;;;;;;;21.58;69.98;101050.38;5074494;28;20024;-37
2023/07/21 10:49:24;;;;;;;3.85;2.78;;;;;;;21.71;69.21;101060.59;5073584;28;20069;-37
2023/07/21 10:51:50;;;;;;;4.45;3.63;;;;;;;21.57;70.44;101057.00;5073945;28;20103;-37
2023/07/21 10:54:16;;;;;;;4.80;4.30;;;;;;;21.42;70.51;101068.22;5073316;28;20027;-37
2023/07/21 10:56:47;;;;;;;6.63;3.42;;;;;;;21.12;70.92;101070.25;5073297;28;20491;-37
2023/07/21 10:59:14;;;;;;;5.32;4.10;;;;;;;20.82;72.36;101066.81;5073572;28;20080;-37
2023/07/21 11:01:47;;;;;;;5.85;4.22;;;;;;;20.65;73.29;101074.72;5073487;28;20029;-37
2023/07/21 11:04:14;;;;;;;8.07;5.53;;;;;;;20.38;74.76;101067.03;5073159;28;20099;-37
2023/07/21 11:06:51;;;;;;;11.45;6.95;;;;;;;20.15;80.15;101079.59;5072518;28;20024;-37
2023/07/21 11:09:17;;;;;;;12.50;9.82;;;;;;;19.85;84.83;101079.88;5073430;28;20029;-37
2023/07/21 11:11:47;;;;;;;14.30;11.38;;;;;;;19.45;88.24;101099.06;5074262;28;20099;-37
2023/07/21 11:14:13;;;;;;;11.27;10.15;;;;;;;19.11;91.94;101111.88;5073118;28;20020;-37
2023/07/21 11:17:01;;;;;;;13.02;10.48;;;;;;;18.71;93.36;101124.66;5073337;28;20086;-37
2023/07/21 11:19:29;;;;;;;11.05;9.40;;;;;;;18.41;97.20;101159.19;5074057;28;20347;-37
2023/07/21 11:21:55;;;;;;;7.85;7.15;;;;;;;17.96;98.88;101166.31;5073291;28;20063;-37
2023/07/21 11:24:28;;;;;;;9.18;7.47;;;;;;;17.71;100.00;101174.44;5073218;28;20020;-37
2023/07/21 11:26:56;;;;;;;9.13;6.68;;;;;;;17.55;100.00;101173.59;5073806;28;20070;-37
2023/07/21 11:29:24;;;;;;;6.53;5.90;;;;;;;17.41;100.00;101175.19;5073499;28;20107;-37
2023/07/21 11:31:49;;;;;;;7.72;6.80;;;;;;;17.31;100.00;101166.94;5072956;28;20033;-37
2023/07/21 11:34:25;;;;;;;7.47;6.50;;;;;;;17.16;100.00;101157.59;5073946;28;20108;-37